createdAt,value
2023-03-21T00:00:48.101Z,2.23
2023-03-21T00:03:17.930Z,3.30
2023-03-21T00:05:49.959Z,5.33
2023-03-21T00:08:18.521Z,3.87
2023-03-21T00:10:46.974Z,7.17
2023-03-21T00:13:19.165Z,4.70
2023-03-21T00:16:04.228Z,3.87
2023-03-21T00:18:42.275Z,3.67
2023-03-21T00:24:04.427Z,3.50
2023-03-21T00:26:35.744Z,4.50
2023-03-21T00:29:04.285Z,4.70
2023-03-21T00:31:32.570Z,3.43
2023-03-21T00:34:09.223Z,3.67
2023-03-21T00:36:38.009Z,3.17
2023-03-21T00:39:09.211Z,2.67
2023-03-21T00:41:44.830Z,4.37
2023-03-21T00:44:16.541Z,2.83
2023-03-21T00:46:57.362Z,3.33
2023-03-21T00:49:35.288Z,3.00
2023-03-21T00:52:15.822Z,3.37
2023-03-21T00:54:47.277Z,4.97
2023-03-21T00:57:20.151Z,3.60
2023-03-21T00:59:54.073Z,3.30
2023-03-21T01:02:26.756Z,2.73
2023-03-21T01:04:59.469Z,2.80
2023-03-21T01:07:27.801Z,2.50
2023-03-21T01:09:56.084Z,3.20
2023-03-21T01:12:24.384Z,2.37
2023-03-21T01:14:55.426Z,3.17
2023-03-21T01:17:23.730Z,4.50
2023-03-21T01:19:54.726Z,2.00
2023-03-21T01:22:24.451Z,2.20
2023-03-21T01:24:58.599Z,2.20
2023-03-21T01:27:29.053Z,3.13
2023-03-21T01:30:00.236Z,4.27
2023-03-21T01:32:28.551Z,3.10
2023-03-21T01:34:59.630Z,2.80
2023-03-21T01:37:29.316Z,4.07
2023-03-21T01:40:00.264Z,2.23
2023-03-21T01:42:28.574Z,2.83
2023-03-21T01:45:00.115Z,1.97
2023-03-21T01:47:28.614Z,2.07
2023-03-21T01:50:00.705Z,2.90
2023-03-21T01:52:37.386Z,2.10
2023-03-21T01:55:12.018Z,2.03
2023-03-21T01:57:58.472Z,2.20
2023-03-21T02:00:33.967Z,2.70
2023-03-21T02:03:19.041Z,2.30
2023-03-21T02:05:57.269Z,3.13
2023-03-21T02:08:38.260Z,2.77
2023-03-21T02:11:09.970Z,2.90
2023-03-21T02:13:38.750Z,2.50
2023-03-21T02:16:18.544Z,3.70
2023-03-21T02:18:56.776Z,2.57
2023-03-21T02:22:37.151Z,4.13
2023-03-21T02:25:54.240Z,2.30
2023-03-21T02:28:27.417Z,16.03
2023-03-21T02:31:15.934Z,3.23
2023-03-21T02:34:35.570Z,2.53
2023-03-21T02:37:23.537Z,2.70
2023-03-21T02:40:13.020Z,3.57
2023-03-21T02:43:00.877Z,2.97
2023-03-21T02:45:48.024Z,2.60
2023-03-21T02:48:29.368Z,2.67
2023-03-21T02:51:02.792Z,2.40
2023-03-21T02:53:39.555Z,3.60
2023-03-21T02:56:10.785Z,2.60
2023-03-21T02:58:40.322Z,2.40
2023-03-21T03:01:09.604Z,2.43
2023-03-21T03:03:39.577Z,2.63
2023-03-21T03:06:17.385Z,2.43
2023-03-21T03:09:04.541Z,3.17
2023-03-21T03:11:35.917Z,2.53
2023-03-21T03:14:50.046Z,2.40
2023-03-21T03:17:28.576Z,3.13
2023-03-21T03:20:17.445Z,5.73
2023-03-21T03:23:00.228Z,2.70
2023-03-21T03:25:42.423Z,2.60
2023-03-21T03:28:14.471Z,3.10
2023-03-21T03:30:57.078Z,3.20
2023-03-21T03:33:34.734Z,3.10
2023-03-21T03:36:06.379Z,3.13
2023-03-21T03:38:37.081Z,3.10
2023-03-21T03:41:12.407Z,2.90
2023-03-21T03:43:46.908Z,2.93
2023-03-21T03:46:20.946Z,3.20
2023-03-21T03:48:56.661Z,3.03
2023-03-21T03:51:30.626Z,3.13
2023-03-21T03:54:03.646Z,3.17
2023-03-21T03:56:33.742Z,2.90
2023-03-21T03:59:05.527Z,2.50
2023-03-21T04:01:34.915Z,2.83
2023-03-21T04:04:12.612Z,3.13
2023-03-21T04:06:41.788Z,4.40
2023-03-21T04:09:20.467Z,2.93
2023-03-21T04:11:51.712Z,3.23
2023-03-21T04:14:20.014Z,3.23
2023-03-21T04:16:49.209Z,3.27
2023-03-21T04:19:20.544Z,3.80
2023-03-21T04:21:48.991Z,3.50
2023-03-21T04:24:17.508Z,5.73
2023-03-21T04:26:45.822Z,3.00
2023-03-21T04:29:15.558Z,3.60
2023-03-21T04:31:43.828Z,4.63
2023-03-21T04:34:12.695Z,3.50
2023-03-21T04:36:44.594Z,3.77
2023-03-21T04:39:13.325Z,4.03
2023-03-21T04:41:42.259Z,3.27
2023-03-21T04:44:11.813Z,3.20
2023-03-21T04:46:42.242Z,5.77
2023-03-21T04:49:11.090Z,3.40
2023-03-21T04:51:39.910Z,4.13
2023-03-21T04:56:36.351Z,4.10
2023-03-21T04:59:09.734Z,3.67
2023-03-21T05:01:38.223Z,3.70
2023-03-21T05:04:08.041Z,4.00
2023-03-21T05:06:36.709Z,5.47
2023-03-21T05:09:07.097Z,5.03
2023-03-21T05:11:37.786Z,3.70
2023-03-21T05:14:06.696Z,3.47
2023-03-21T05:16:36.452Z,3.67
2023-03-21T05:19:05.092Z,4.73
2023-03-21T05:21:41.359Z,3.30
2023-03-21T05:24:15.818Z,3.67
2023-03-21T05:26:50.356Z,4.43
2023-03-21T05:29:20.309Z,3.50
2023-03-21T05:31:48.793Z,3.70
2023-03-21T05:34:17.081Z,6.20
2023-03-21T05:36:46.720Z,6.03
2023-03-21T05:39:15.013Z,4.17
2023-03-21T05:41:46.206Z,5.93
2023-03-21T05:44:14.532Z,5.03
2023-03-21T05:46:43.451Z,4.20
2023-03-21T05:49:13.129Z,5.37
2023-03-21T05:51:41.581Z,4.13
2023-03-21T05:54:16.679Z,3.60
2023-03-21T05:56:45.016Z,3.70
2023-03-21T05:59:13.257Z,3.57
2023-03-21T06:01:44.250Z,4.93
2023-03-21T06:04:12.628Z,4.10
2023-03-21T06:06:40.970Z,4.10
2023-03-21T06:09:10.746Z,4.10
2023-03-21T06:11:42.115Z,4.00
2023-03-21T06:14:10.481Z,3.73
2023-03-21T06:16:38.729Z,4.17
2023-03-21T06:19:07.014Z,4.60
2023-03-21T06:21:35.503Z,3.83
2023-03-21T06:24:04.542Z,4.30
2023-03-21T06:26:34.246Z,3.97
2023-03-21T06:29:02.576Z,4.90
2023-03-21T06:31:31.010Z,4.50
2023-03-21T06:34:02.380Z,8.90
2023-03-21T06:36:30.791Z,6.00
2023-03-21T06:38:59.129Z,5.27
2023-03-21T06:41:27.525Z,4.97
2023-03-21T06:43:57.222Z,4.90
2023-03-21T06:46:25.749Z,4.13
2023-03-21T06:48:54.078Z,4.60
2023-03-21T06:51:22.415Z,4.10
2023-03-21T06:53:50.697Z,4.50
2023-03-21T06:56:19.954Z,6.13
2023-03-21T06:58:48.535Z,4.97
2023-03-21T07:01:18.243Z,5.30
2023-03-21T07:03:46.568Z,6.93
2023-03-21T07:06:14.949Z,6.27
2023-03-21T07:08:43.424Z,6.63
2023-03-21T07:11:11.754Z,6.30
2023-03-21T07:13:40.030Z,5.83
2023-03-21T07:16:10.226Z,6.63
2023-03-21T07:18:40.029Z,7.10
2023-03-21T07:21:08.875Z,7.73
2023-03-21T07:23:38.359Z,6.87
2023-03-21T07:26:08.227Z,7.20
2023-03-21T07:28:36.695Z,7.40
2023-03-21T07:31:08.458Z,7.47
2023-03-21T07:33:36.852Z,7.13
2023-03-21T07:36:12.818Z,10.03
2023-03-21T07:38:41.707Z,6.90
2023-03-21T07:41:10.005Z,7.33
2023-03-21T07:43:39.366Z,6.73
2023-03-21T07:46:08.383Z,6.53
2023-03-21T07:48:37.340Z,6.77
2023-03-21T07:51:07.846Z,6.87
2023-03-21T07:53:36.213Z,7.63
2023-03-21T07:56:05.690Z,7.77
2023-03-21T07:58:34.320Z,7.70
2023-03-21T08:01:03.328Z,7.43
2023-03-21T08:03:33.331Z,7.30
2023-03-21T08:06:02.148Z,8.07
2023-03-21T08:08:31.992Z,10.60
2023-03-21T08:11:00.377Z,7.90
2023-03-21T08:13:28.756Z,8.13
2023-03-21T08:15:57.096Z,7.67
2023-03-21T08:18:25.612Z,10.63
2023-03-21T08:20:54.970Z,8.23
2023-03-21T08:23:23.753Z,7.60
2023-03-21T08:25:55.344Z,7.30
2023-03-21T08:28:24.797Z,6.13
2023-03-21T08:30:53.181Z,6.17
2023-03-21T08:33:21.734Z,7.37
2023-03-21T08:35:50.147Z,6.70
2023-03-21T08:38:18.511Z,6.53
2023-03-21T08:40:46.968Z,6.97
2023-03-21T08:43:16.638Z,6.57
2023-03-21T08:45:45.003Z,6.30
2023-03-21T08:48:14.597Z,6.73
2023-03-21T08:50:43.083Z,6.90
2023-03-21T08:53:11.397Z,6.93
2023-03-21T08:55:42.447Z,8.37
2023-03-21T08:58:11.294Z,7.00
2023-03-21T09:00:41.069Z,7.53
2023-03-21T09:03:11.634Z,5.80
2023-03-21T09:05:40.896Z,8.87
2023-03-21T09:08:09.271Z,6.27
2023-03-21T09:10:37.626Z,5.80
2023-03-21T09:13:06.500Z,6.50
2023-03-21T09:15:35.434Z,6.27
2023-03-21T09:18:15.101Z,5.80
2023-03-21T09:20:44.742Z,8.93
2023-03-21T09:23:14.546Z,5.07
2023-03-21T09:25:43.485Z,4.90
2023-03-21T09:28:13.233Z,8.47
2023-03-21T09:30:41.637Z,5.13
2023-03-21T09:33:19.232Z,6.37
2023-03-21T09:35:49.098Z,5.90
2023-03-21T09:38:19.357Z,4.30
2023-03-21T09:41:04.539Z,4.27
2023-03-21T09:43:50.702Z,3.53
2023-03-21T09:46:27.082Z,3.37
2023-03-21T09:49:01.238Z,3.70
2023-03-21T09:51:36.983Z,3.93
2023-03-21T09:54:14.249Z,4.00
2023-03-21T09:56:44.703Z,4.67
2023-03-21T09:59:25.153Z,3.87
2023-03-21T10:01:55.350Z,3.57
2023-03-21T10:04:25.191Z,4.70
2023-03-21T10:06:59.627Z,4.90
2023-03-21T10:09:29.652Z,4.10
2023-03-21T10:12:03.677Z,4.17
2023-03-21T10:14:36.597Z,3.63
2023-03-21T10:17:21.426Z,4.57
2023-03-21T10:19:57.677Z,3.93
2023-03-21T10:22:26.011Z,4.30
2023-03-21T10:24:54.317Z,4.23
2023-03-21T10:27:27.909Z,4.47
2023-03-21T10:29:57.598Z,4.60
2023-03-21T10:32:25.990Z,4.30
2023-03-21T10:34:58.442Z,4.90
2023-03-21T10:37:27.720Z,3.53
2023-03-21T10:39:57.286Z,3.30
2023-03-21T10:42:28.126Z,2.80
2023-03-21T10:44:58.841Z,2.00
2023-03-21T10:47:31.642Z,2.40
2023-03-21T10:50:08.909Z,3.40
2023-03-21T10:52:43.449Z,3.17
2023-03-21T10:55:23.014Z,3.97
2023-03-21T10:57:58.914Z,3.93
2023-03-21T11:00:31.539Z,3.43
2023-03-21T11:03:00.847Z,3.30
2023-03-21T11:05:38.448Z,4.97
2023-03-21T11:08:12.720Z,3.13
2023-03-21T11:10:56.454Z,3.73
2023-03-21T11:13:28.278Z,4.10
2023-03-21T11:15:59.309Z,3.00
2023-03-21T11:18:33.100Z,4.00
2023-03-21T11:21:07.772Z,4.13
2023-03-21T11:23:41.189Z,3.77
2023-03-21T11:26:13.771Z,3.37
2023-03-21T11:28:44.914Z,4.07
2023-03-21T11:31:13.745Z,3.93
2023-03-21T11:33:57.476Z,3.73
2023-03-21T11:36:36.314Z,4.27
2023-03-21T11:39:29.585Z,4.63
2023-03-21T11:41:57.996Z,4.27
2023-03-21T11:44:42.571Z,3.57
2023-03-21T11:47:15.035Z,4.67
2023-03-21T11:49:43.352Z,3.67
2023-03-21T11:52:25.200Z,3.20
2023-03-21T11:55:22.300Z,2.73
2023-03-21T11:58:13.931Z,3.93
2023-03-21T12:00:50.008Z,3.03
2023-03-21T12:03:49.143Z,4.87
2023-03-21T12:06:29.838Z,4.33
2023-03-21T12:09:38.887Z,7.53
2023-03-21T12:12:39.166Z,4.20
2023-03-21T12:15:19.429Z,4.40
2023-03-21T12:17:58.958Z,3.73
2023-03-21T12:20:51.111Z,3.27
2023-03-21T12:23:40.465Z,5.07
2023-03-21T12:26:21.154Z,4.03
2023-03-21T12:29:20.859Z,3.73
2023-03-21T12:32:06.518Z,4.13
2023-03-21T12:35:31.598Z,3.83
2023-03-21T12:38:17.013Z,3.47
2023-03-21T12:41:02.105Z,4.47
2023-03-21T12:43:47.726Z,4.00
2023-03-21T12:46:22.555Z,4.67
2023-03-21T12:48:54.041Z,4.77
2023-03-21T12:51:29.463Z,4.27
2023-03-21T12:54:08.563Z,5.60
2023-03-21T12:56:45.940Z,4.17
2023-03-21T12:59:26.328Z,4.47
2023-03-21T13:02:01.743Z,4.10
2023-03-21T13:04:42.434Z,5.00
2023-03-21T13:07:18.090Z,4.40
2023-03-21T13:09:46.893Z,4.40
2023-03-21T13:12:42.394Z,4.37
2023-03-21T13:15:38.548Z,4.63
2023-03-21T13:18:19.279Z,4.37
2023-03-21T13:20:51.575Z,4.23
2023-03-21T13:23:21.240Z,4.10
2023-03-21T13:25:51.934Z,4.13
2023-03-21T13:28:24.427Z,4.53
2023-03-21T13:30:54.817Z,4.60
2023-03-21T13:33:29.928Z,4.03
2023-03-21T13:36:05.580Z,4.87
2023-03-21T13:38:36.411Z,5.10
2023-03-21T13:41:10.772Z,4.43
2023-03-21T13:43:47.651Z,7.17
2023-03-21T13:46:50.612Z,4.17
2023-03-21T13:49:31.454Z,4.10
2023-03-21T13:52:02.347Z,4.40
2023-03-21T13:54:51.665Z,4.37
2023-03-21T13:57:44.273Z,4.40
2023-03-21T14:00:25.663Z,4.30
2023-03-21T14:03:03.669Z,4.13
2023-03-21T14:05:35.500Z,4.07
2023-03-21T14:08:15.343Z,4.17
2023-03-21T14:10:49.135Z,4.17
2023-03-21T14:13:20.902Z,4.90
2023-03-21T14:15:56.282Z,4.20
2023-03-21T14:18:52.461Z,4.50
2023-03-21T14:21:24.245Z,4.60
2023-03-21T14:24:01.445Z,5.03
2023-03-21T14:26:34.308Z,4.70
2023-03-21T14:29:18.999Z,5.73
2023-03-21T14:31:53.550Z,5.80
2023-03-21T14:34:24.177Z,5.37
2023-03-21T14:36:58.317Z,8.27
2023-03-21T14:39:31.018Z,4.73
2023-03-21T14:42:06.145Z,4.90
2023-03-21T14:44:52.948Z,9.40
2023-03-21T14:47:25.062Z,5.33
2023-03-21T14:49:55.396Z,6.67
2023-03-21T14:52:27.241Z,16.50
2023-03-21T14:54:57.269Z,13.30
2023-03-21T14:57:29.025Z,6.57
2023-03-21T15:00:01.849Z,13.40
2023-03-21T15:02:35.025Z,9.90
2023-03-21T15:05:15.447Z,12.53
2023-03-21T15:07:43.799Z,8.50
2023-03-21T15:10:18.360Z,5.47
2023-03-21T15:12:54.935Z,6.63
2023-03-21T15:15:27.388Z,6.60
2023-03-21T15:17:58.270Z,8.83
2023-03-21T15:20:33.424Z,5.77
2023-03-21T15:23:05.599Z,5.43
2023-03-21T15:25:36.866Z,4.77
2023-03-21T15:28:06.722Z,6.50
2023-03-21T15:30:36.282Z,5.70
2023-03-21T15:33:11.019Z,4.53
2023-03-21T15:35:46.019Z,4.20
2023-03-21T15:38:25.771Z,5.10
2023-03-21T15:41:16.607Z,4.50
2023-03-21T15:43:45.312Z,5.03
2023-03-21T15:46:19.042Z,5.90
2023-03-21T15:48:47.492Z,3.40
2023-03-21T15:51:22.797Z,4.67
2023-03-21T15:53:55.234Z,5.60
2023-03-21T15:56:25.126Z,4.97
2023-03-21T15:58:57.178Z,5.20
2023-03-21T16:01:26.357Z,6.50
2023-03-21T16:03:59.631Z,5.13
2023-03-21T16:06:34.825Z,5.30
2023-03-21T16:09:14.363Z,6.90
2023-03-21T16:11:45.603Z,5.23
2023-03-21T16:14:13.900Z,6.20
2023-03-21T16:16:42.522Z,5.60
2023-03-21T16:19:10.956Z,5.53
2023-03-21T16:21:40.786Z,6.27
2023-03-21T16:24:12.950Z,6.00
2023-03-21T16:26:47.713Z,6.33
2023-03-21T16:29:17.072Z,5.70
2023-03-21T16:31:45.870Z,5.17
2023-03-21T16:34:14.194Z,5.87
2023-03-21T16:36:44.531Z,6.53
2023-03-21T16:39:19.241Z,6.00
2023-03-21T16:41:48.215Z,6.73
2023-03-21T16:44:16.703Z,5.97
2023-03-21T16:46:47.122Z,5.90
2023-03-21T16:49:24.631Z,7.53
2023-03-21T16:51:55.310Z,6.17
2023-03-21T16:54:24.250Z,5.80
2023-03-21T16:56:54.783Z,6.00
2023-03-21T16:59:23.728Z,10.80
2023-03-21T17:01:52.512Z,6.17
2023-03-21T17:04:20.909Z,7.03
2023-03-21T17:06:51.632Z,6.97
2023-03-21T17:09:24.308Z,6.13
2023-03-21T17:11:52.745Z,6.10
2023-03-21T17:14:26.836Z,6.10
2023-03-21T17:16:55.318Z,7.27
2023-03-21T17:19:26.483Z,8.60
2023-03-21T17:21:55.297Z,7.00
2023-03-21T17:24:26.367Z,6.50
2023-03-21T17:26:54.711Z,8.80
2023-03-21T17:29:23.117Z,7.10
2023-03-21T17:31:51.685Z,6.40
2023-03-21T17:34:20.285Z,5.93
2023-03-21T17:36:49.952Z,6.50
2023-03-21T17:39:23.921Z,6.90
2023-03-21T17:41:55.085Z,6.47
2023-03-21T17:44:23.488Z,6.70
2023-03-21T17:46:52.474Z,8.27
2023-03-21T17:49:21.445Z,10.87
2023-03-21T17:51:50.506Z,10.50
2023-03-21T17:54:19.079Z,8.50
2023-03-21T17:56:48.474Z,7.50
2023-03-21T17:59:18.293Z,8.27
2023-03-21T18:01:47.435Z,8.13
2023-03-21T18:04:16.112Z,7.67
2023-03-21T18:06:44.967Z,7.50
2023-03-21T18:09:13.993Z,33.83
2023-03-21T18:11:42.663Z,23.07
2023-03-21T18:14:17.693Z,13.07
2023-03-21T18:16:50.649Z,7.80
2023-03-21T18:19:19.332Z,7.43
2023-03-21T18:21:47.799Z,10.70
2023-03-21T18:24:16.722Z,7.80
2023-03-21T18:26:46.200Z,7.33
2023-03-21T18:32:08.950Z,5.97
2023-03-21T18:34:39.916Z,5.77
2023-03-21T18:37:11.368Z,6.17
2023-03-21T18:39:42.501Z,6.47
2023-03-21T18:42:17.317Z,6.70
2023-03-21T18:44:48.206Z,5.87
2023-03-21T18:47:18.484Z,5.53
2023-03-21T18:50:13.589Z,6.07
2023-03-21T18:52:35.552Z,9.23
2023-03-21T18:55:04.776Z,5.50
2023-03-21T18:57:37.840Z,7.23
2023-03-21T19:00:12.958Z,6.20
2023-03-21T19:02:47.340Z,5.93
2023-03-21T19:05:18.709Z,6.13
2023-03-21T19:07:48.040Z,6.13
2023-03-21T19:10:19.579Z,6.13
2023-03-21T19:12:49.321Z,5.40
2023-03-21T19:15:19.735Z,6.27
2023-03-21T19:18:37.189Z,5.70
2023-03-21T19:20:45.176Z,7.57
2023-03-21T19:23:13.802Z,6.20
2023-03-21T19:25:43.874Z,7.40
2023-03-21T19:28:12.222Z,6.20
2023-03-21T19:30:49.071Z,5.83
2023-03-21T19:33:20.095Z,5.77
2023-03-21T19:35:50.355Z,6.73
2023-03-21T19:38:18.797Z,7.40
2023-03-21T19:40:47.156Z,8.10
2023-03-21T19:43:32.194Z,5.97
2023-03-21T19:46:02.057Z,6.83
2023-03-21T19:48:32.469Z,6.13
2023-03-21T19:51:26.708Z,7.47
2023-03-21T19:53:51.170Z,7.60
2023-03-21T19:56:23.007Z,7.53
2023-03-21T19:58:53.000Z,8.00
2023-03-21T20:01:21.868Z,7.73
2023-03-21T20:03:51.721Z,8.17
2023-03-21T20:06:22.317Z,9.77
2023-03-21T20:09:27.576Z,10.47
2023-03-21T20:11:39.358Z,11.03
2023-03-21T20:14:07.859Z,8.10
2023-03-21T20:16:37.032Z,7.40
2023-03-21T20:19:09.965Z,7.73
2023-03-21T20:21:53.014Z,7.47
2023-03-21T20:24:24.852Z,7.30
2023-03-21T20:26:55.001Z,10.80
2023-03-21T20:32:20.735Z,12.97
2023-03-21T20:34:50.388Z,10.50
2023-03-21T20:37:18.778Z,11.73
2023-03-21T20:39:58.271Z,8.80
2023-03-21T20:42:26.834Z,10.17
2023-03-21T20:44:59.361Z,9.83
2023-03-21T20:47:28.999Z,9.80
2023-03-21T20:49:59.646Z,9.27
2023-03-21T20:52:54.779Z,9.87
2023-03-21T20:55:18.218Z,9.53
2023-03-21T20:57:48.625Z,9.90
2023-03-21T21:00:18.729Z,9.67
2023-03-21T21:02:49.544Z,8.80
2023-03-21T21:05:30.621Z,9.17
2023-03-21T21:08:02.908Z,9.63
2023-03-21T21:10:33.820Z,9.53
2023-03-21T21:13:02.862Z,9.83
2023-03-21T21:15:31.354Z,8.53
2023-03-21T21:18:07.877Z,7.90
2023-03-21T21:20:40.132Z,8.50
2023-03-21T21:23:09.639Z,8.00
2023-03-21T21:25:38.333Z,13.40
2023-03-21T21:28:09.417Z,8.93
2023-03-21T21:30:42.825Z,7.63
2023-03-21T21:33:11.450Z,8.67
2023-03-21T21:35:47.379Z,7.77
2023-03-21T21:38:17.555Z,10.10
2023-03-21T21:40:46.230Z,12.83
2023-03-21T21:43:15.269Z,11.07
2023-03-21T21:45:44.610Z,14.87
2023-03-21T21:48:13.387Z,12.10
2023-03-21T21:50:47.401Z,9.20
2023-03-21T21:53:18.512Z,8.57
2023-03-21T21:55:48.647Z,9.00
2023-03-21T21:58:19.083Z,8.17
2023-03-21T22:00:48.740Z,9.00
2023-03-21T22:03:22.208Z,8.40
2023-03-21T22:05:54.573Z,9.07
2023-03-21T22:08:23.147Z,7.93
2023-03-21T22:10:51.577Z,8.07
2023-03-21T22:13:19.847Z,8.83
2023-03-21T22:15:48.308Z,7.23
2023-03-21T22:18:16.610Z,8.10
2023-03-21T22:20:45.623Z,7.33
2023-03-21T22:23:15.625Z,7.50
2023-03-21T22:25:44.384Z,7.07
2023-03-21T22:28:12.690Z,6.63
2023-03-21T22:30:41.035Z,8.60
2023-03-21T22:33:10.224Z,8.90
2023-03-21T22:35:39.163Z,8.37
2023-03-21T22:38:07.550Z,10.63
2023-03-21T22:40:37.621Z,7.47
2023-03-21T22:43:06.237Z,7.13
2023-03-21T22:45:35.233Z,7.70
2023-03-21T22:48:03.718Z,7.50
2023-03-21T22:50:32.129Z,6.77
2023-03-21T22:53:00.564Z,7.53
2023-03-21T22:55:28.985Z,7.50
2023-03-21T22:57:58.630Z,11.00
2023-03-21T23:00:27.582Z,8.30
2023-03-21T23:02:57.152Z,7.53
2023-03-21T23:05:25.475Z,8.43
2023-03-21T23:07:56.871Z,8.17
2023-03-21T23:10:25.413Z,8.53
2023-03-21T23:12:56.460Z,7.87
2023-03-21T23:15:26.306Z,7.90
2023-03-21T23:17:54.591Z,8.10
2023-03-21T23:20:25.899Z,7.77
2023-03-21T23:22:54.219Z,7.43
2023-03-21T23:25:27.585Z,8.00
2023-03-21T23:27:56.312Z,8.13
2023-03-21T23:30:26.190Z,8.90
2023-03-21T23:32:54.489Z,8.40
2023-03-21T23:35:22.842Z,8.77
2023-03-21T23:37:52.740Z,7.97
2023-03-21T23:40:21.824Z,7.60
2023-03-21T23:42:50.103Z,8.23
2023-03-21T23:45:21.491Z,8.40
2023-03-21T23:47:51.207Z,10.50
2023-03-21T23:50:19.699Z,9.47
2023-03-21T23:52:48.034Z,10.67
2023-03-21T23:55:19.270Z,9.53
2023-03-21T23:57:48.154Z,9.23
